createdAt,value
2018-08-18T00:00:48.087Z,11.77
2018-08-18T00:03:15.877Z,10.13
2018-08-18T00:05:43.647Z,6.33
2018-08-18T00:08:11.441Z,13.10
2018-08-18T00:11:13.673Z,10.73
2018-08-18T00:13:53.890Z,7.57
2018-08-18T00:16:24.269Z,10.53
2018-08-18T00:18:58.300Z,8.13
2018-08-18T00:21:28.548Z,11.23
2018-08-18T00:24:06.127Z,12.33
2018-08-18T00:26:33.978Z,12.50
2018-08-18T00:29:01.869Z,5.67
2018-08-18T00:31:30.076Z,6.07
2018-08-18T00:33:58.152Z,9.33
2018-08-18T00:36:26.036Z,11.63
2018-08-18T00:38:57.133Z,16.30
2018-08-18T00:41:26.217Z,9.30
2018-08-18T00:43:54.338Z,9.17
2018-08-18T00:46:22.668Z,11.17
2018-08-18T00:48:50.952Z,9.40
2018-08-18T00:51:18.857Z,12.13
2018-08-18T00:53:46.917Z,11.73
2018-08-18T00:56:14.810Z,14.43
2018-08-18T00:58:51.129Z,15.37
2018-08-18T01:01:19.210Z,9.30
2018-08-18T01:03:52.775Z,14.23
2018-08-18T01:06:25.005Z,9.77
2018-08-18T01:08:54.337Z,13.60
2018-08-18T01:14:20.590Z,14.03
2018-08-18T01:16:51.585Z,13.50
2018-08-18T01:19:21.410Z,10.90
2018-08-18T01:21:53.991Z,15.10
2018-08-18T01:24:34.991Z,18.17
2018-08-18T01:27:03.845Z,15.07
2018-08-18T01:29:31.643Z,11.00
2018-08-18T01:31:59.425Z,13.70
2018-08-18T01:34:27.408Z,11.23
2018-08-18T01:36:56.816Z,14.07
2018-08-18T01:39:24.743Z,14.87
2018-08-18T01:41:52.787Z,12.77
2018-08-18T01:44:21.905Z,9.80
2018-08-18T01:46:50.845Z,15.47
2018-08-18T01:49:20.237Z,12.67
2018-08-18T01:51:48.227Z,13.03
2018-08-18T01:54:16.445Z,16.47
2018-08-18T01:56:45.092Z,13.83
2018-08-18T01:59:12.950Z,18.27
2018-08-18T02:01:40.872Z,16.77
2018-08-18T02:04:08.699Z,13.80
2018-08-18T02:06:36.636Z,17.20
2018-08-18T02:09:05.639Z,17.97
2018-08-18T02:11:33.567Z,11.30
2018-08-18T02:14:01.586Z,11.70
2018-08-18T02:16:29.550Z,13.13
2018-08-18T02:18:57.510Z,21.43
2018-08-18T02:21:31.178Z,17.53
2018-08-18T02:24:02.595Z,17.47
2018-08-18T02:26:31.142Z,19.73
2018-08-18T02:28:59.208Z,17.37
2018-08-18T02:31:27.139Z,18.37
2018-08-18T02:36:20.305Z,14.37
2018-08-18T02:38:53.601Z,14.23
2018-08-18T02:41:21.387Z,14.17
2018-08-18T02:43:49.175Z,15.43
2018-08-18T02:46:21.900Z,14.80
2018-08-18T02:48:50.686Z,14.57
2018-08-18T02:51:18.411Z,19.13
2018-08-18T02:53:46.126Z,17.87
2018-08-18T02:56:13.901Z,13.97
2018-08-18T02:58:45.100Z,16.80
2018-08-18T03:01:12.929Z,12.07
2018-08-18T03:03:40.742Z,15.27
2018-08-18T03:06:11.652Z,11.57
2018-08-18T03:08:39.809Z,12.80
2018-08-18T03:11:07.582Z,21.00
2018-08-18T03:13:35.332Z,13.40
2018-08-18T03:16:04.244Z,15.80
2018-08-18T03:18:36.307Z,14.13
2018-08-18T03:21:04.353Z,15.37
2018-08-18T03:23:33.052Z,14.83
2018-08-18T03:26:00.839Z,12.40
2018-08-18T03:28:31.042Z,15.53
2018-08-18T03:30:58.763Z,15.70
2018-08-18T03:33:26.503Z,16.50
2018-08-18T03:35:54.251Z,17.30
2018-08-18T03:38:22.006Z,18.43
2018-08-18T03:40:49.785Z,15.43
2018-08-18T03:43:18.525Z,14.87
2018-08-18T03:45:46.303Z,13.80
2018-08-18T03:48:14.072Z,14.87
2018-08-18T03:50:47.164Z,9.97
2018-08-18T03:53:16.656Z,13.60
2018-08-18T03:55:44.428Z,13.93
2018-08-18T03:58:12.334Z,19.67
2018-08-18T04:00:40.700Z,12.17
2018-08-18T04:03:16.800Z,14.03
2018-08-18T04:05:44.556Z,17.80
2018-08-18T04:08:13.289Z,16.37
2018-08-18T04:10:41.016Z,16.90
2018-08-18T04:13:09.738Z,15.27
2018-08-18T04:15:37.470Z,13.50
2018-08-18T04:18:10.179Z,18.77
2018-08-18T04:20:37.966Z,13.00
2018-08-18T04:23:05.735Z,16.67
2018-08-18T04:25:33.493Z,15.40
2018-08-18T04:28:01.252Z,16.73
2018-08-18T04:30:29.005Z,13.77
2018-08-18T04:33:00.339Z,15.60
2018-08-18T04:35:29.157Z,15.43
2018-08-18T04:37:57.751Z,15.77
2018-08-18T04:40:25.902Z,18.07
2018-08-18T04:42:55.551Z,13.97
2018-08-18T04:45:24.383Z,15.97
2018-08-18T04:47:52.115Z,15.63
2018-08-18T04:50:20.957Z,13.37
2018-08-18T04:52:51.462Z,17.93
2018-08-18T04:55:19.535Z,20.30
2018-08-18T04:57:47.289Z,13.63
2018-08-18T05:00:15.364Z,21.57
2018-08-18T05:02:48.752Z,9.93
2018-08-18T05:08:19.218Z,15.33
2018-08-18T05:10:47.046Z,13.07
2018-08-18T05:13:14.855Z,15.63
2018-08-18T05:15:42.668Z,11.63
2018-08-18T05:18:10.495Z,15.67
2018-08-18T05:20:38.225Z,21.20
2018-08-18T05:23:17.864Z,13.83
2018-08-18T05:25:45.622Z,15.87
2018-08-18T05:28:13.394Z,14.80
2018-08-18T05:30:41.464Z,9.93
2018-08-18T05:33:10.149Z,12.97
2018-08-18T05:35:39.359Z,14.07
2018-08-18T05:38:08.346Z,11.60
2018-08-18T05:40:36.141Z,12.90
2018-08-18T05:43:03.905Z,9.40
2018-08-18T05:45:33.450Z,17.90
2018-08-18T05:48:01.206Z,15.90
2018-08-18T05:50:30.197Z,15.30
2018-08-18T05:53:31.519Z,11.77
2018-08-18T05:55:59.856Z,18.80
2018-08-18T06:01:42.070Z,12.20
2018-08-18T06:04:14.970Z,18.27
2018-08-18T06:06:45.256Z,14.93
2018-08-18T06:09:14.136Z,14.60
2018-08-18T06:11:42.151Z,22.87
2018-08-18T06:14:10.747Z,13.77
2018-08-18T06:16:38.855Z,16.40
2018-08-18T06:19:06.702Z,12.77
2018-08-18T06:21:35.479Z,15.33
2018-08-18T06:24:03.381Z,11.97
2018-08-18T06:26:31.214Z,13.20
2018-08-18T06:28:59.046Z,13.20
2018-08-18T06:31:26.824Z,11.10
2018-08-18T06:33:56.867Z,15.80
2018-08-18T06:36:24.641Z,11.27
2018-08-18T06:38:52.538Z,12.87
2018-08-18T06:41:20.316Z,11.60
2018-08-18T06:43:48.123Z,17.73
2018-08-18T06:46:15.961Z,15.07
2018-08-18T06:48:43.705Z,12.10
2018-08-18T06:51:11.533Z,12.70
2018-08-18T06:53:44.514Z,14.37
2018-08-18T06:56:12.410Z,14.50
2018-08-18T06:58:40.233Z,15.63
2018-08-18T07:01:08.645Z,11.53
2018-08-18T07:03:40.485Z,13.37
2018-08-18T07:06:10.254Z,12.00
2018-08-18T07:08:43.816Z,11.28
2018-08-18T07:11:11.733Z,17.47
2018-08-18T07:13:40.374Z,11.37
2018-08-18T07:16:08.414Z,11.57
2018-08-18T07:18:36.432Z,15.10
2018-08-18T07:21:04.349Z,10.13
2018-08-18T07:23:32.323Z,12.53
2018-08-18T07:26:01.141Z,14.73
2018-08-18T07:28:29.158Z,13.38
2018-08-18T07:30:57.041Z,13.10
2018-08-18T07:33:25.270Z,15.00
2018-08-18T07:35:53.205Z,16.27
2018-08-18T07:38:21.195Z,12.55
2018-08-18T07:40:50.876Z,15.67
2018-08-18T07:43:21.338Z,13.00
2018-08-18T07:45:50.077Z,12.47
2018-08-18T07:48:18.059Z,10.90
2018-08-18T07:50:45.984Z,16.35
2018-08-18T07:53:15.040Z,11.40
2018-08-18T07:55:42.788Z,14.90
2018-08-18T07:58:12.217Z,17.05
2018-08-18T08:01:28.187Z,15.57
2018-08-18T08:03:55.989Z,20.02
2018-08-18T08:06:23.792Z,21.25
2018-08-18T08:08:51.584Z,15.17
2018-08-18T08:11:19.371Z,19.17
2018-08-18T08:13:47.213Z,14.80
2018-08-18T08:16:14.934Z,16.70
2018-08-18T08:18:42.936Z,17.60
2018-08-18T08:21:10.942Z,10.95
2018-08-18T08:23:38.985Z,13.93
2018-08-18T08:26:06.851Z,11.95
2018-08-18T08:28:34.625Z,11.88
2018-08-18T08:31:02.488Z,15.65
2018-08-18T08:33:35.806Z,14.05
2018-08-18T08:36:07.390Z,10.88
2018-08-18T08:38:46.503Z,11.63
2018-08-18T08:41:14.478Z,14.60
2018-08-18T08:43:42.239Z,13.62
2018-08-18T08:46:10.132Z,16.15
2018-08-18T08:48:37.915Z,13.83
2018-08-18T08:51:05.726Z,14.38
2018-08-18T08:54:06.878Z,9.38
2018-08-18T08:56:38.004Z,12.35
2018-08-18T08:59:05.994Z,14.43
2018-08-18T09:01:34.365Z,19.00
2018-08-18T09:04:02.897Z,11.22
2018-08-18T09:06:30.999Z,8.65
2018-08-18T09:08:59.630Z,8.73
2018-08-18T09:11:28.766Z,13.30
2018-08-18T09:14:00.754Z,12.45
2018-08-18T09:16:30.403Z,11.38
2018-08-18T09:18:58.521Z,16.00
2018-08-18T09:21:27.266Z,13.90
2018-08-18T09:23:55.250Z,17.45
2018-08-18T09:26:23.276Z,13.20
2018-08-18T09:28:51.162Z,15.78
2018-08-18T09:31:19.181Z,10.58
2018-08-18T09:33:47.102Z,12.15
2018-08-18T09:36:15.183Z,13.72
2018-08-18T09:38:43.107Z,14.07
2018-08-18T09:41:11.110Z,12.98
2018-08-18T09:43:39.392Z,19.25
2018-08-18T09:46:07.410Z,17.27
2018-08-18T09:48:35.346Z,19.60
2018-08-18T09:51:03.373Z,14.53
2018-08-18T09:53:31.313Z,16.15
2018-08-18T09:55:59.169Z,19.30
2018-08-18T09:58:26.988Z,22.17
2018-08-18T10:00:54.849Z,17.40
2018-08-18T10:03:22.711Z,16.07
2018-08-18T10:05:50.498Z,11.03
2018-08-18T10:08:19.350Z,16.10
2018-08-18T10:10:47.168Z,14.55
2018-08-18T10:13:14.996Z,13.80
2018-08-18T10:15:42.751Z,15.68
2018-08-18T10:18:10.597Z,13.72
2018-08-18T10:20:43.891Z,17.15
2018-08-18T10:23:11.980Z,13.90
2018-08-18T10:25:39.841Z,14.75
2018-08-18T10:28:07.745Z,13.70
2018-08-18T10:30:36.609Z,17.48
2018-08-18T10:33:06.173Z,13.13
2018-08-18T10:35:34.017Z,17.80
2018-08-18T10:38:03.032Z,16.10
2018-08-18T10:40:30.833Z,11.95
2018-08-18T10:42:58.638Z,12.82
2018-08-18T10:45:26.434Z,8.93
2018-08-18T10:47:54.398Z,11.70
2018-08-18T10:51:32.607Z,15.55
2018-08-18T10:54:01.755Z,14.05
2018-08-18T10:56:29.726Z,10.05
2018-08-18T10:59:16.051Z,8.13
2018-08-18T11:02:25.867Z,9.80
2018-08-18T11:04:53.611Z,9.38
2018-08-18T11:07:21.403Z,12.20
2018-08-18T11:09:49.170Z,12.00
2018-08-18T11:12:16.958Z,14.03
2018-08-18T11:14:49.281Z,9.43
2018-08-18T11:17:17.221Z,8.98
2018-08-18T11:19:44.976Z,8.05
2018-08-18T11:23:30.519Z,6.00
2018-08-18T11:25:58.355Z,8.48
2018-08-18T11:28:26.272Z,8.03
2018-08-18T11:30:54.574Z,11.95
2018-08-18T11:33:38.802Z,5.92
2018-08-18T11:36:07.656Z,7.87
2018-08-18T11:38:35.495Z,8.88
2018-08-18T11:41:03.367Z,4.45
2018-08-18T11:43:33.972Z,8.10
2018-08-18T11:46:01.778Z,7.33
2018-08-18T11:48:29.650Z,4.72
2018-08-18T11:50:57.529Z,7.72
2018-08-18T11:53:25.364Z,7.58
2018-08-18T11:55:55.190Z,9.80
2018-08-18T11:58:23.950Z,14.43
2018-08-18T12:00:57.096Z,12.35
2018-08-18T12:03:29.557Z,11.78
2018-08-18T12:06:00.449Z,7.75
2018-08-18T12:08:32.366Z,9.58
2018-08-18T12:11:03.630Z,12.90
2018-08-18T12:13:37.007Z,10.95
2018-08-18T12:16:09.843Z,5.65
2018-08-18T12:18:38.451Z,11.57
2018-08-18T12:21:06.511Z,6.60
2018-08-18T12:23:35.964Z,9.13
2018-08-18T12:26:09.212Z,11.12
2018-08-18T12:28:45.712Z,7.55
2018-08-18T12:31:17.975Z,13.78
2018-08-18T12:33:45.831Z,7.72
2018-08-18T12:38:48.922Z,12.13
2018-08-18T12:41:16.880Z,9.73
2018-08-18T12:43:49.473Z,9.20
2018-08-18T12:46:18.638Z,19.15
2018-08-18T12:48:47.855Z,9.95
2018-08-18T12:51:16.758Z,11.45
2018-08-18T12:53:47.367Z,12.98
2018-08-18T12:56:16.955Z,11.08
2018-08-18T12:58:44.975Z,12.53
2018-08-18T13:01:13.992Z,12.93
2018-08-18T13:03:41.756Z,11.78
2018-08-18T13:06:09.866Z,13.50
2018-08-18T13:08:37.768Z,13.13
2018-08-18T13:11:05.738Z,10.90
2018-08-18T13:13:33.772Z,9.38
2018-08-18T13:16:01.776Z,12.80
2018-08-18T13:18:29.807Z,8.25
2018-08-18T13:20:59.806Z,13.90
2018-08-18T13:23:28.472Z,8.83
2018-08-18T13:25:56.522Z,10.13
2018-08-18T13:28:24.381Z,10.43
2018-08-18T13:30:52.188Z,16.85
2018-08-18T13:33:20.139Z,12.58
2018-08-18T13:35:49.447Z,13.85
2018-08-18T13:38:29.846Z,7.20
2018-08-18T13:40:57.754Z,9.98
2018-08-18T13:43:38.700Z,9.73
2018-08-18T13:46:07.519Z,10.38
2018-08-18T13:48:35.326Z,11.53
2018-08-18T13:51:03.147Z,13.15
2018-08-18T13:53:32.426Z,8.63
2018-08-18T13:56:00.380Z,8.03
2018-08-18T13:58:28.229Z,10.28
2018-08-18T14:00:56.166Z,8.15
2018-08-18T14:03:27.785Z,10.32
2018-08-18T14:05:56.076Z,11.00
2018-08-18T14:08:23.966Z,12.10
2018-08-18T14:11:20.544Z,9.63
2018-08-18T14:13:48.572Z,8.25
2018-08-18T14:16:16.527Z,11.63
2018-08-18T14:18:44.530Z,7.30
2018-08-18T14:21:12.500Z,6.92
2018-08-18T14:23:40.344Z,10.48
2018-08-18T14:26:08.196Z,12.98
2018-08-18T14:28:36.007Z,9.00
2018-08-18T14:31:03.845Z,7.53
2018-08-18T14:33:31.727Z,10.90
2018-08-18T14:36:05.328Z,7.78
2018-08-18T14:38:33.640Z,10.82
2018-08-18T14:41:01.705Z,12.25
2018-08-18T14:43:35.209Z,9.20
2018-08-18T14:46:30.832Z,12.68
2018-08-18T14:48:58.595Z,6.53
2018-08-18T14:51:26.416Z,10.78
2018-08-18T14:53:54.244Z,9.38
2018-08-18T14:56:22.068Z,10.53
2018-08-18T14:58:50.933Z,7.22
2018-08-18T15:01:18.705Z,14.43
2018-08-18T15:03:48.566Z,14.25
2018-08-18T15:06:16.387Z,10.25
2018-08-18T15:08:44.232Z,11.22
2018-08-18T15:11:12.009Z,15.20
2018-08-18T15:13:39.757Z,9.45
2018-08-18T15:16:07.523Z,12.45
2018-08-18T15:18:35.562Z,14.90
2018-08-18T15:21:03.415Z,8.50
2018-08-18T15:23:31.164Z,8.90
2018-08-18T15:25:59.916Z,8.58
2018-08-18T15:28:27.790Z,6.78
2018-08-18T15:30:55.691Z,8.85
2018-08-18T15:33:24.920Z,9.00
2018-08-18T15:35:52.773Z,9.43
2018-08-18T15:38:36.454Z,6.60
2018-08-18T15:41:04.239Z,8.23
2018-08-18T15:43:32.002Z,10.72
2018-08-18T15:46:02.875Z,7.97
2018-08-18T15:48:31.178Z,12.43
2018-08-18T15:50:59.010Z,8.23
2018-08-18T15:54:00.700Z,11.10
2018-08-18T15:56:29.600Z,11.45
2018-08-18T15:58:57.973Z,10.90
2018-08-18T16:01:27.022Z,8.35
2018-08-18T16:03:56.998Z,6.40
2018-08-18T16:06:24.876Z,6.20
2018-08-18T16:08:53.049Z,8.85
2018-08-18T16:11:20.878Z,5.65
2018-08-18T16:13:48.673Z,5.45
2018-08-18T16:16:16.467Z,5.33
2018-08-18T16:18:44.855Z,6.83
2018-08-18T16:21:27.408Z,8.13
2018-08-18T16:23:55.445Z,7.33
2018-08-18T16:26:23.174Z,5.05
2018-08-18T16:28:51.980Z,4.97
2018-08-18T16:31:19.820Z,5.20
2018-08-18T16:33:49.719Z,9.38
2018-08-18T16:36:17.661Z,9.45
2018-08-18T16:38:45.482Z,11.12
2018-08-18T16:41:13.359Z,9.35
2018-08-18T16:43:42.104Z,9.05
2018-08-18T16:46:26.428Z,9.88
2018-08-18T16:49:09.800Z,8.38
2018-08-18T16:51:37.789Z,9.30
2018-08-18T16:54:19.175Z,10.53
2018-08-18T16:56:48.252Z,6.53
2018-08-18T16:59:16.055Z,8.08
2018-08-18T17:01:43.869Z,6.50
2018-08-18T17:04:13.667Z,8.00
2018-08-18T17:06:41.392Z,8.03
2018-08-18T17:09:10.317Z,11.50
2018-08-18T17:11:38.093Z,10.45
2018-08-18T17:14:10.354Z,8.33
2018-08-18T17:16:38.285Z,8.25
2018-08-18T17:22:43.374Z,7.80
2018-08-18T17:25:11.297Z,9.00
2018-08-18T17:27:41.397Z,7.22
2018-08-18T17:30:09.275Z,7.53
2018-08-18T17:32:52.299Z,9.10
2018-08-18T17:35:20.177Z,8.28
2018-08-18T17:37:51.735Z,7.47
2018-08-18T17:40:19.647Z,6.53
2018-08-18T17:42:48.728Z,6.53
2018-08-18T17:45:17.545Z,9.95
2018-08-18T17:47:59.654Z,9.13
2018-08-18T17:50:27.504Z,8.55
2018-08-18T17:53:43.484Z,6.92
2018-08-18T17:56:11.596Z,8.03
2018-08-18T17:58:45.132Z,7.15
2018-08-18T18:01:13.046Z,9.03
2018-08-18T18:04:12.612Z,9.23
2018-08-18T18:06:40.498Z,9.13
2018-08-18T18:12:50.680Z,4.83
2018-08-18T18:15:33.513Z,12.13
2018-08-18T18:18:01.345Z,8.70
2018-08-18T18:20:30.738Z,6.78
2018-08-18T18:22:58.564Z,9.25
2018-08-18T18:25:26.682Z,5.67
2018-08-18T18:27:54.679Z,10.35
2018-08-18T18:30:24.997Z,9.33
2018-08-18T18:32:53.359Z,8.60
2018-08-18T18:35:22.956Z,9.28
2018-08-18T18:37:51.875Z,10.20
2018-08-18T18:40:19.934Z,7.45
2018-08-18T18:42:47.773Z,8.95
2018-08-18T18:45:15.614Z,7.72
2018-08-18T18:47:44.478Z,8.43
2018-08-18T18:50:14.919Z,6.08
2018-08-18T18:52:42.879Z,9.83
2018-08-18T18:55:10.750Z,5.53
2018-08-18T18:57:43.418Z,12.10
2018-08-18T19:00:11.268Z,8.88
2018-08-18T19:02:46.928Z,9.68
2018-08-18T19:05:22.061Z,11.28
2018-08-18T19:08:11.182Z,7.55
2018-08-18T19:10:39.119Z,6.45
2018-08-18T19:13:07.673Z,8.23
2018-08-18T19:15:35.485Z,5.30
2018-08-18T19:18:03.666Z,7.62
2018-08-18T19:20:31.483Z,6.80
2018-08-18T19:23:06.099Z,7.45
2018-08-18T19:25:34.747Z,8.18
2018-08-18T19:28:02.687Z,6.92
2018-08-18T19:30:31.242Z,7.60
2018-08-18T19:32:59.095Z,6.60
2018-08-18T19:35:37.160Z,6.40
2018-08-18T19:38:05.474Z,7.78
2018-08-18T19:40:34.334Z,5.37
2018-08-18T19:43:02.178Z,7.80
2018-08-18T19:45:31.037Z,13.62
2018-08-18T19:47:58.800Z,6.17
2018-08-18T19:50:26.566Z,12.55
2018-08-18T19:53:00.914Z,7.50
2018-08-18T19:55:28.729Z,8.43
2018-08-18T19:57:56.525Z,6.90
2018-08-18T20:00:24.356Z,5.28
2018-08-18T20:03:02.810Z,8.35
2018-08-18T20:05:31.314Z,6.05
2018-08-18T20:07:59.280Z,7.95
2018-08-18T20:10:27.178Z,7.72
2018-08-18T20:12:56.155Z,6.95
2018-08-18T20:15:24.034Z,6.10
2018-08-18T20:17:51.922Z,7.97
2018-08-18T20:20:21.231Z,7.28
2018-08-18T20:22:49.155Z,7.35
2018-08-18T20:25:16.965Z,9.08
2018-08-18T20:27:44.724Z,6.70
2018-08-18T20:30:13.413Z,5.20
2018-08-18T20:32:41.377Z,10.65
2018-08-18T20:35:09.248Z,6.75
2018-08-18T20:37:37.068Z,6.85
2018-08-18T20:40:06.145Z,6.08
2018-08-18T20:42:39.020Z,7.37
2018-08-18T20:45:07.204Z,6.03
2018-08-18T20:47:35.089Z,4.37
2018-08-18T20:50:03.018Z,4.35
2018-08-18T20:52:30.754Z,4.37
2018-08-18T20:54:59.804Z,6.55
2018-08-18T20:57:27.579Z,4.83
2018-08-18T20:59:55.338Z,5.25
2018-08-18T21:04:53.829Z,6.25
2018-08-18T21:07:22.209Z,4.47
2018-08-18T21:09:50.012Z,4.37
2018-08-18T21:12:17.840Z,8.93
2018-08-18T21:14:45.632Z,3.45
2018-08-18T21:17:13.520Z,4.10
2018-08-18T21:19:41.315Z,9.05
2018-08-18T21:22:11.491Z,4.25
2018-08-18T21:24:39.526Z,6.80
2018-08-18T21:27:07.330Z,6.58
2018-08-18T21:29:35.148Z,9.38
2018-08-18T21:32:03.229Z,5.08
2018-08-18T21:34:37.781Z,6.58
2018-08-18T21:37:06.277Z,4.85
2018-08-18T21:39:34.198Z,4.03
2018-08-18T21:42:02.202Z,4.35
2018-08-18T21:44:30.182Z,7.90
2018-08-18T21:46:58.107Z,7.22
2018-08-18T21:49:26.026Z,10.75
2018-08-18T21:51:54.394Z,7.55
2018-08-18T21:54:22.292Z,5.10
2018-08-18T21:56:50.271Z,7.67
2018-08-18T21:59:18.219Z,5.15
2018-08-18T22:01:46.160Z,6.65
2018-08-18T22:04:14.015Z,5.53
2018-08-18T22:06:41.933Z,5.15
2018-08-18T22:09:21.535Z,4.83
2018-08-18T22:11:49.557Z,6.33
2018-08-18T22:14:18.026Z,5.22
2018-08-18T22:16:57.302Z,7.87
2018-08-18T22:19:26.059Z,4.83
2018-08-18T22:21:53.985Z,5.85
2018-08-18T22:24:21.976Z,4.42
2018-08-18T22:26:50.064Z,6.90
2018-08-18T22:29:21.704Z,6.10
2018-08-18T22:35:18.326Z,5.65
2018-08-18T22:37:46.114Z,4.60
2018-08-18T22:40:13.918Z,5.03
2018-08-18T22:42:41.754Z,7.30
2018-08-18T22:45:21.501Z,6.87
2018-08-18T22:47:49.337Z,5.55
2018-08-18T22:50:18.169Z,7.53
2018-08-18T22:52:54.621Z,5.50
2018-08-18T22:55:22.478Z,5.45
2018-08-18T22:57:55.790Z,7.35
2018-08-18T23:00:23.762Z,6.85
2018-08-18T23:02:51.610Z,8.53
2018-08-18T23:05:20.050Z,7.37
2018-08-18T23:07:54.421Z,7.00
2018-08-18T23:10:23.171Z,5.05
2018-08-18T23:12:51.985Z,8.88
2018-08-18T23:15:19.732Z,5.75
2018-08-18T23:17:47.504Z,7.65
2018-08-18T23:20:15.331Z,8.95
2018-08-18T23:22:56.206Z,9.43
2018-08-18T23:25:25.518Z,11.40
2018-08-18T23:28:40.719Z,7.97
2018-08-18T23:31:08.496Z,8.43
2018-08-18T23:33:36.228Z,9.85
2018-08-18T23:36:04.008Z,9.23
2018-08-18T23:41:24.684Z,12.40
2018-08-18T23:43:52.584Z,11.88
2018-08-18T23:46:20.351Z,9.23
2018-08-18T23:49:01.375Z,10.68
2018-08-18T23:51:43.753Z,12.15
2018-08-18T23:54:17.012Z,13.75
2018-08-18T23:56:45.911Z,21.70
2018-08-18T23:59:13.663Z,11.55
